CYCP

Details ICAO CYCP
Name BLUE RIVER
Region Canada
Timezone America/Vancouver (UTC-8.0)
Plans Departing 1
Arriving 4
Stats Elevation 2,240 ft / 683 m (AMSL)
Location 52.116667° -119.284725°
Runways 1
Magnetic Variation 16.129° E
Sunrise 2017-12-14 16:00:22 UTC / 2017-12-14 08:00:22 Local
Sunset 2017-12-14 23:46:23 UTC / 2017-12-14 15:46:23 Local
Advertisement - Login to hide

Runways

ID Width Length Bearing (true) Bearing (mag) Surface Threshold Offset Overrun Length
01 60 ft / 18 m 4,997 ft / 1,523 m 31.56° 15.43° Asphalt 0 ft / 0 m 0 ft / 0 m
19 60 ft / 18 m 4,997 ft / 1,523 m 211.57° 195.44° Asphalt 0 ft / 0 m 0 ft / 0 m

Map

Weather


0- 5 10 15 20 25 30 35+ Temperature / ° C

Clouds and Precipitation
Forecast for 2017-12-15 00:00 UTC. Updated 2 hours ago

Ground ~20,000 ft ~40,000 ft Winds

METAR

CYCP 142000Z 00000KT 15SM FEW005 FEW015 OVC027 M01/M03 A3042 RMK SF1SC1SC6 SLP337

TAF

Not found

Frequencies

Unicom 123.20 MHz CTAF
Warning: Do not use this data for real-world aviation or navigation. No guarantee of current accuracy is given.